sensor_id;sensor_type;location;lat;lon;timestamp;temperature;humidity
52209;DHT22;38507;53.132;6.394;2022-07-22T00:01:34;15.80;99.90
52209;DHT22;38507;53.132;6.394;2022-07-22T00:04:00;15.80;99.90
52209;DHT22;38507;53.132;6.394;2022-07-22T00:06:27;15.70;99.90
52209;DHT22;38507;53.132;6.394;2022-07-22T00:08:52;15.70;99.90
52209;DHT22;38507;53.132;6.394;2022-07-22T00:11:18;15.70;99.90
52209;DHT22;38507;53.132;6.394;2022-07-22T00:13:44;15.90;99.90
52209;DHT22;38507;53.132;6.394;2022-07-22T00:16:12;15.60;99.90
52209;DHT22;38507;53.132;6.394;2022-07-22T00:18:38;15.60;99.90
52209;DHT22;38507;53.132;6.394;2022-07-22T00:21:04;15.60;99.90
52209;DHT22;38507;53.132;6.394;2022-07-22T00:23:30;15.60;99.90
52209;DHT22;38507;53.132;6.394;2022-07-22T00:25:56;15.50;99.90
52209;DHT22;38507;53.132;6.394;2022-07-22T00:28:22;15.60;99.90
52209;DHT22;38507;53.132;6.394;2022-07-22T00:30:48;15.70;99.90
52209;DHT22;38507;53.132;6.394;2022-07-22T00:33:13;15.60;99.90
52209;DHT22;38507;53.132;6.394;2022-07-22T00:35:39;15.60;99.90
52209;DHT22;38507;53.132;6.394;2022-07-22T00:38:05;15.90;99.90
52209;DHT22;38507;53.132;6.394;2022-07-22T00:40:31;15.60;99.90
52209;DHT22;38507;53.132;6.394;2022-07-22T00:42:56;15.50;99.90
52209;DHT22;38507;53.132;6.394;2022-07-22T00:45:22;15.50;99.90
52209;DHT22;38507;53.132;6.394;2022-07-22T00:47:48;15.50;99.90
52209;DHT22;38507;53.132;6.394;2022-07-22T00:50:14;15.50;99.90
52209;DHT22;38507;53.132;6.394;2022-07-22T00:52:41;15.50;99.90
52209;DHT22;38507;53.132;6.394;2022-07-22T00:55:07;15.50;99.90
52209;DHT22;38507;53.132;6.394;2022-07-22T00:57:33;15.50;99.90
52209;DHT22;38507;53.132;6.394;2022-07-22T00:59:59;15.60;99.90
52209;DHT22;38507;53.132;6.394;2022-07-22T01:02:25;15.50;99.90
52209;DHT22;38507;53.132;6.394;2022-07-22T01:04:51;15.50;99.90
52209;DHT22;38507;53.132;6.394;2022-07-22T01:07:17;15.70;99.90
52209;DHT22;38507;53.132;6.394;2022-07-22T01:09:44;15.40;99.90
52209;DHT22;38507;53.132;6.394;2022-07-22T01:12:09;15.40;99.90
52209;DHT22;38507;53.132;6.394;2022-07-22T01:14:36;15.50;99.90
52209;DHT22;38507;53.132;6.394;2022-07-22T01:17:03;15.30;99.90
52209;DHT22;38507;53.132;6.394;2022-07-22T01:19:28;15.40;99.90
52209;DHT22;38507;53.132;6.394;2022-07-22T01:21:54;15.60;99.90
52209;DHT22;38507;53.132;6.394;2022-07-22T01:24:20;15.30;99.90
52209;DHT22;38507;53.132;6.394;2022-07-22T01:26:46;15.30;99.90
52209;DHT22;38507;53.132;6.394;2022-07-22T01:29:12;15.50;99.90
52209;DHT22;38507;53.132;6.394;2022-07-22T01:31:37;15.30;99.90
52209;DHT22;38507;53.132;6.394;2022-07-22T01:34:03;15.30;99.90
52209;DHT22;38507;53.132;6.394;2022-07-22T01:36:29;15.30;99.90
52209;DHT22;38507;53.132;6.394;2022-07-22T01:38:55;15.30;99.90
52209;DHT22;38507;53.132;6.394;2022-07-22T01:41:21;15.30;99.90
52209;DHT22;38507;53.132;6.394;2022-07-22T01:43:46;15.20;99.90
52209;DHT22;38507;53.132;6.394;2022-07-22T01:46:14;15.20;99.90
52209;DHT22;38507;53.132;6.394;2022-07-22T01:48:42;15.20;99.90
52209;DHT22;38507;53.132;6.394;2022-07-22T01:51:08;15.30;99.90
52209;DHT22;38507;53.132;6.394;2022-07-22T01:53:33;15.50;99.90
52209;DHT22;38507;53.132;6.394;2022-07-22T01:55:59;15.20;99.90
52209;DHT22;38507;53.132;6.394;2022-07-22T01:58:25;15.40;99.90
52209;DHT22;38507;53.132;6.394;2022-07-22T02:00:50;15.40;99.90
52209;DHT22;38507;53.132;6.394;2022-07-22T02:03:16;15.20;99.90
52209;DHT22;38507;53.132;6.394;2022-07-22T02:05:42;15.20;99.90
52209;DHT22;38507;53.132;6.394;2022-07-22T02:08:09;15.30;99.90
52209;DHT22;38507;53.132;6.394;2022-07-22T02:10:35;15.50;99.90
52209;DHT22;38507;53.132;6.394;2022-07-22T02:13:02;15.30;99.90
52209;DHT22;38507;53.132;6.394;2022-07-22T02:15:28;15.20;99.90
52209;DHT22;38507;53.132;6.394;2022-07-22T02:17:54;15.30;99.90
52209;DHT22;38507;53.132;6.394;2022-07-22T02:20:20;15.30;99.90
52209;DHT22;38507;53.132;6.394;2022-07-22T02:22:46;15.20;99.90
52209;DHT22;38507;53.132;6.394;2022-07-22T02:25:12;15.20;99.90
52209;DHT22;38507;53.132;6.394;2022-07-22T02:27:40;15.20;99.90
52209;DHT22;38507;53.132;6.394;2022-07-22T02:30:07;15.20;99.90
52209;DHT22;38507;53.132;6.394;2022-07-22T02:32:33;15.20;99.90
52209;DHT22;38507;53.132;6.394;2022-07-22T02:34:59;15.50;99.90
52209;DHT22;38507;53.132;6.394;2022-07-22T02:37:25;15.40;99.90
52209;DHT22;38507;53.132;6.394;2022-07-22T02:39:50;15.20;99.90
52209;DHT22;38507;53.132;6.394;2022-07-22T02:42:16;15.20;99.90
52209;DHT22;38507;53.132;6.394;2022-07-22T02:44:42;15.20;99.90
52209;DHT22;38507;53.132;6.394;2022-07-22T02:47:08;15.20;99.90
52209;DHT22;38507;53.132;6.394;2022-07-22T02:49:34;15.40;99.90
52209;DHT22;38507;53.132;6.394;2022-07-22T02:52:00;15.40;99.90
52209;DHT22;38507;53.132;6.394;2022-07-22T02:54:25;15.20;99.90
52209;DHT22;38507;53.132;6.394;2022-07-22T02:56:51;15.20;99.90
52209;DHT22;38507;53.132;6.394;2022-07-22T02:59:17;15.20;99.90
52209;DHT22;38507;53.132;6.394;2022-07-22T03:01:43;15.20;99.90
52209;DHT22;38507;53.132;6.394;2022-07-22T03:04:08;15.20;99.90
52209;DHT22;38507;53.132;6.394;2022-07-22T03:06:34;15.20;99.90
52209;DHT22;38507;53.132;6.394;2022-07-22T03:09:00;15.30;99.90
52209;DHT22;38507;53.132;6.394;2022-07-22T03:11:26;15.10;99.90
52209;DHT22;38507;53.132;6.394;2022-07-22T03:13:51;15.20;99.90
52209;DHT22;38507;53.132;6.394;2022-07-22T03:16:17;15.30;99.90
52209;DHT22;38507;53.132;6.394;2022-07-22T03:18:42;15.20;99.90
52209;DHT22;38507;53.132;6.394;2022-07-22T03:21:08;15.20;99.90
52209;DHT22;38507;53.132;6.394;2022-07-22T03:23:34;15.10;99.90
52209;DHT22;38507;53.132;6.394;2022-07-22T03:25:59;15.10;99.90
52209;DHT22;38507;53.132;6.394;2022-07-22T03:28:25;15.10;99.90
52209;DHT22;38507;53.132;6.394;2022-07-22T03:30:53;15.20;99.90
52209;DHT22;38507;53.132;6.394;2022-07-22T03:33:19;15.10;99.90
52209;DHT22;38507;53.132;6.394;2022-07-22T03:35:45;15.10;99.90
52209;DHT22;38507;53.132;6.394;2022-07-22T03:38:11;15.10;99.90
52209;DHT22;38507;53.132;6.394;2022-07-22T03:40:36;15.10;99.90
52209;DHT22;38507;53.132;6.394;2022-07-22T03:43:02;15.10;99.90
52209;DHT22;38507;53.132;6.394;2022-07-22T03:45:28;15.10;99.90
52209;DHT22;38507;53.132;6.394;2022-07-22T03:47:54;15.10;99.90
52209;DHT22;38507;53.132;6.394;2022-07-22T03:50:24;15.10;99.90
52209;DHT22;38507;53.132;6.394;2022-07-22T03:52:49;15.10;99.90
52209;DHT22;38507;53.132;6.394;2022-07-22T03:55:15;15.00;99.90
52209;DHT22;38507;53.132;6.394;2022-07-22T03:57:41;15.00;99.90
52209;DHT22;38507;53.132;6.394;2022-07-22T04:00:07;15.00;99.90
52209;DHT22;38507;53.132;6.394;2022-07-22T04:02:33;15.00;99.90
52209;DHT22;38507;53.132;6.394;2022-07-22T04:04:59;15.00;99.90
52209;DHT22;38507;53.132;6.394;2022-07-22T04:07:24;15.00;99.90
52209;DHT22;38507;53.132;6.394;2022-07-22T04:09:50;15.00;99.90
52209;DHT22;38507;53.132;6.394;2022-07-22T04:12:16;15.00;99.90
52209;DHT22;38507;53.132;6.394;2022-07-22T04:14:41;15.00;99.90
52209;DHT22;38507;53.132;6.394;2022-07-22T04:17:07;15.00;99.90
52209;DHT22;38507;53.132;6.394;2022-07-22T04:19:33;15.00;99.90
52209;DHT22;38507;53.132;6.394;2022-07-22T04:21:59;15.00;99.90
52209;DHT22;38507;53.132;6.394;2022-07-22T04:24:25;15.00;99.90
52209;DHT22;38507;53.132;6.394;2022-07-22T04:26:50;15.10;99.90
52209;DHT22;38507;53.132;6.394;2022-07-22T04:29:16;15.00;99.90
52209;DHT22;38507;53.132;6.394;2022-07-22T04:31:41;15.10;99.90
52209;DHT22;38507;53.132;6.394;2022-07-22T04:34:07;15.00;99.90
52209;DHT22;38507;53.132;6.394;2022-07-22T04:36:33;15.00;99.90
52209;DHT22;38507;53.132;6.394;2022-07-22T04:38:59;15.00;99.90
52209;DHT22;38507;53.132;6.394;2022-07-22T04:41:25;15.10;99.90
52209;DHT22;38507;53.132;6.394;2022-07-22T04:43:51;15.00;99.90
52209;DHT22;38507;53.132;6.394;2022-07-22T04:46:16;15.10;99.90
52209;DHT22;38507;53.132;6.394;2022-07-22T04:48:42;15.10;99.90
52209;DHT22;38507;53.132;6.394;2022-07-22T04:51:08;15.10;99.90
52209;DHT22;38507;53.132;6.394;2022-07-22T04:53:33;15.10;99.90
52209;DHT22;38507;53.132;6.394;2022-07-22T04:55:59;15.10;99.90
52209;DHT22;38507;53.132;6.394;2022-07-22T04:58:25;15.10;99.90
52209;DHT22;38507;53.132;6.394;2022-07-22T05:00:51;15.30;99.90
52209;DHT22;38507;53.132;6.394;2022-07-22T05:03:16;15.10;99.90
52209;DHT22;38507;53.132;6.394;2022-07-22T05:05:42;15.20;99.90
52209;DHT22;38507;53.132;6.394;2022-07-22T05:08:08;15.20;99.90
52209;DHT22;38507;53.132;6.394;2022-07-22T05:10:33;15.20;99.90
52209;DHT22;38507;53.132;6.394;2022-07-22T05:12:59;15.20;99.90
52209;DHT22;38507;53.132;6.394;2022-07-22T05:15:25;15.30;99.90
52209;DHT22;38507;53.132;6.394;2022-07-22T05:17:51;15.30;99.90
52209;DHT22;38507;53.132;6.394;2022-07-22T05:20:17;15.30;99.90
52209;DHT22;38507;53.132;6.394;2022-07-22T05:22:43;15.40;99.90
52209;DHT22;38507;53.132;6.394;2022-07-22T05:25:08;15.40;99.90
52209;DHT22;38507;53.132;6.394;2022-07-22T05:27:34;15.40;99.90
52209;DHT22;38507;53.132;6.394;2022-07-22T05:30:00;15.40;99.90
52209;DHT22;38507;53.132;6.394;2022-07-22T05:32:26;15.50;99.90
52209;DHT22;38507;53.132;6.394;2022-07-22T05:34:52;15.50;99.90
52209;DHT22;38507;53.132;6.394;2022-07-22T05:37:17;15.50;99.90
52209;DHT22;38507;53.132;6.394;2022-07-22T05:39:43;15.90;99.90
52209;DHT22;38507;53.132;6.394;2022-07-22T05:42:09;15.50;99.90
52209;DHT22;38507;53.132;6.394;2022-07-22T05:44:35;15.50;99.90
52209;DHT22;38507;53.132;6.394;2022-07-22T05:47:00;15.60;99.90
52209;DHT22;38507;53.132;6.394;2022-07-22T05:49:26;15.80;99.90
52209;DHT22;38507;53.132;6.394;2022-07-22T05:51:53;15.70;99.90
52209;DHT22;38507;53.132;6.394;2022-07-22T05:54:19;15.70;99.90
52209;DHT22;38507;53.132;6.394;2022-07-22T05:56:45;15.70;99.90
52209;DHT22;38507;53.132;6.394;2022-07-22T05:59:11;16.10;99.90
52209;DHT22;38507;53.132;6.394;2022-07-22T06:01:36;15.80;99.90
52209;DHT22;38507;53.132;6.394;2022-07-22T06:04:02;15.80;99.90
52209;DHT22;38507;53.132;6.394;2022-07-22T06:06:28;15.90;99.90
52209;DHT22;38507;53.132;6.394;2022-07-22T06:08:54;16.10;99.90
52209;DHT22;38507;53.132;6.394;2022-07-22T06:11:19;15.90;99.90
52209;DHT22;38507;53.132;6.394;2022-07-22T06:13:45;16.20;99.90
52209;DHT22;38507;53.132;6.394;2022-07-22T06:16:10;16.10;99.90
52209;DHT22;38507;53.132;6.394;2022-07-22T06:18:36;16.10;99.90
52209;DHT22;38507;53.132;6.394;2022-07-22T06:21:04;16.10;99.90
52209;DHT22;38507;53.132;6.394;2022-07-22T06:23:29;16.20;99.90
52209;DHT22;38507;53.132;6.394;2022-07-22T06:25:55;16.20;99.90
52209;DHT22;38507;53.132;6.394;2022-07-22T06:28:20;16.20;99.90
52209;DHT22;38507;53.132;6.394;2022-07-22T06:30:46;16.20;99.90
52209;DHT22;38507;53.132;6.394;2022-07-22T06:33:12;16.30;99.90
52209;DHT22;38507;53.132;6.394;2022-07-22T06:35:39;16.30;99.90
52209;DHT22;38507;53.132;6.394;2022-07-22T06:38:05;16.30;99.90
52209;DHT22;38507;53.132;6.394;2022-07-22T06:40:32;16.50;99.90
52209;DHT22;38507;53.132;6.394;2022-07-22T06:42:58;16.40;99.90
52209;DHT22;38507;53.132;6.394;2022-07-22T06:45:24;16.40;99.90
52209;DHT22;38507;53.132;6.394;2022-07-22T06:47:49;16.50;99.90
52209;DHT22;38507;53.132;6.394;2022-07-22T06:50:15;16.50;99.90
52209;DHT22;38507;53.132;6.394;2022-07-22T06:52:41;16.50;99.90
52209;DHT22;38507;53.132;6.394;2022-07-22T06:55:08;16.60;99.90
52209;DHT22;38507;53.132;6.394;2022-07-22T06:57:34;16.60;99.90
52209;DHT22;38507;53.132;6.394;2022-07-22T07:00:00;16.60;99.90
52209;DHT22;38507;53.132;6.394;2022-07-22T07:02:26;16.70;99.90
52209;DHT22;38507;53.132;6.394;2022-07-22T07:04:52;16.70;99.90
52209;DHT22;38507;53.132;6.394;2022-07-22T07:07:18;16.80;99.90
52209;DHT22;38507;53.132;6.394;2022-07-22T07:09:44;17.10;99.90
52209;DHT22;38507;53.132;6.394;2022-07-22T07:12:09;17.00;99.90
52209;DHT22;38507;53.132;6.394;2022-07-22T07:14:35;17.00;99.90
52209;DHT22;38507;53.132;6.394;2022-07-22T07:17:01;17.20;99.90
52209;DHT22;38507;53.132;6.394;2022-07-22T07:19:27;17.10;99.90
52209;DHT22;38507;53.132;6.394;2022-07-22T07:21:52;17.10;99.90
52209;DHT22;38507;53.132;6.394;2022-07-22T07:24:18;17.20;99.90
52209;DHT22;38507;53.132;6.394;2022-07-22T07:26:46;17.30;99.90
52209;DHT22;38507;53.132;6.394;2022-07-22T07:29:12;17.30;99.90
52209;DHT22;38507;53.132;6.394;2022-07-22T07:31:37;17.40;99.90
52209;DHT22;38507;53.132;6.394;2022-07-22T07:34:03;17.30;99.90
52209;DHT22;38507;53.132;6.394;2022-07-22T07:36:29;17.40;99.90
52209;DHT22;38507;53.132;6.394;2022-07-22T07:38:54;17.40;99.90
52209;DHT22;38507;53.132;6.394;2022-07-22T07:41:20;17.50;99.90
52209;DHT22;38507;53.132;6.394;2022-07-22T07:43:46;17.50;99.90
52209;DHT22;38507;53.132;6.394;2022-07-22T07:46:12;17.70;99.90
52209;DHT22;38507;53.132;6.394;2022-07-22T07:48:38;17.70;99.90
52209;DHT22;38507;53.132;6.394;2022-07-22T07:51:04;17.60;99.90
52209;DHT22;38507;53.132;6.394;2022-07-22T07:53:30;17.60;99.90
52209;DHT22;38507;53.132;6.394;2022-07-22T07:55:56;17.50;99.90
52209;DHT22;38507;53.132;6.394;2022-07-22T07:58:22;17.50;99.90
52209;DHT22;38507;53.132;6.394;2022-07-22T08:00:47;17.60;99.90
52209;DHT22;38507;53.132;6.394;2022-07-22T08:03:13;17.50;99.90
52209;DHT22;38507;53.132;6.394;2022-07-22T08:05:39;17.60;99.90
52209;DHT22;38507;53.132;6.394;2022-07-22T08:08:05;17.50;99.90
52209;DHT22;38507;53.132;6.394;2022-07-22T08:10:31;17.60;99.90
52209;DHT22;38507;53.132;6.394;2022-07-22T08:12:57;17.70;99.90
52209;DHT22;38507;53.132;6.394;2022-07-22T08:15:24;17.70;99.90
52209;DHT22;38507;53.132;6.394;2022-07-22T08:17:50;17.80;99.90
52209;DHT22;38507;53.132;6.394;2022-07-22T08:20:15;17.80;99.90
52209;DHT22;38507;53.132;6.394;2022-07-22T08:22:41;18.10;99.90
52209;DHT22;38507;53.132;6.394;2022-07-22T08:25:07;17.90;99.90
52209;DHT22;38507;53.132;6.394;2022-07-22T08:27:34;17.90;99.90
52209;DHT22;38507;53.132;6.394;2022-07-22T08:30:00;17.90;99.90
52209;DHT22;38507;53.132;6.394;2022-07-22T08:32:29;17.90;99.90
52209;DHT22;38507;53.132;6.394;2022-07-22T08:34:55;17.90;99.90
52209;DHT22;38507;53.132;6.394;2022-07-22T08:37:21;18.20;99.90
52209;DHT22;38507;53.132;6.394;2022-07-22T08:39:46;17.90;99.90
52209;DHT22;38507;53.132;6.394;2022-07-22T08:42:12;17.90;99.90
52209;DHT22;38507;53.132;6.394;2022-07-22T08:44:39;18.00;99.90
52209;DHT22;38507;53.132;6.394;2022-07-22T08:47:05;17.90;99.90
52209;DHT22;38507;53.132;6.394;2022-07-22T08:49:31;17.80;99.90
52209;DHT22;38507;53.132;6.394;2022-07-22T08:51:57;17.80;99.90
52209;DHT22;38507;53.132;6.394;2022-07-22T08:54:23;17.90;99.90
52209;DHT22;38507;53.132;6.394;2022-07-22T08:56:50;17.80;99.90
52209;DHT22;38507;53.132;6.394;2022-07-22T08:59:16;17.90;99.90
52209;DHT22;38507;53.132;6.394;2022-07-22T09:02:00;17.90;99.90
52209;DHT22;38507;53.132;6.394;2022-07-22T09:04:26;17.80;99.90
52209;DHT22;38507;53.132;6.394;2022-07-22T09:06:52;17.90;99.90
52209;DHT22;38507;53.132;6.394;2022-07-22T09:09:32;17.90;99.90
52209;DHT22;38507;53.132;6.394;2022-07-22T09:12:06;17.90;99.90
52209;DHT22;38507;53.132;6.394;2022-07-22T09:14:45;18.00;99.90
52209;DHT22;38507;53.132;6.394;2022-07-22T09:17:35;18.10;99.90
52209;DHT22;38507;53.132;6.394;2022-07-22T09:20:04;18.10;99.90
52209;DHT22;38507;53.132;6.394;2022-07-22T09:22:45;18.10;99.90
52209;DHT22;38507;53.132;6.394;2022-07-22T09:25:31;18.00;99.90
52209;DHT22;38507;53.132;6.394;2022-07-22T09:30:40;18.20;99.90
52209;DHT22;38507;53.132;6.394;2022-07-22T09:33:06;18.20;99.90
52209;DHT22;38507;53.132;6.394;2022-07-22T09:35:32;18.20;99.90
52209;DHT22;38507;53.132;6.394;2022-07-22T09:38:03;18.20;99.90
52209;DHT22;38507;53.132;6.394;2022-07-22T09:40:49;18.10;99.90
52209;DHT22;38507;53.132;6.394;2022-07-22T09:43:17;18.20;99.90
52209;DHT22;38507;53.132;6.394;2022-07-22T09:48:11;18.30;99.90
52209;DHT22;38507;53.132;6.394;2022-07-22T09:50:37;18.40;99.90
52209;DHT22;38507;53.132;6.394;2022-07-22T09:53:03;18.50;99.90
52209;DHT22;38507;53.132;6.394;2022-07-22T09:55:29;18.50;99.90
52209;DHT22;38507;53.132;6.394;2022-07-22T09:57:57;18.60;99.90
52209;DHT22;38507;53.132;6.394;2022-07-22T10:00:25;18.60;99.90
52209;DHT22;38507;53.132;6.394;2022-07-22T10:02:59;18.60;99.90
52209;DHT22;38507;53.132;6.394;2022-07-22T10:05:34;18.70;99.90
52209;DHT22;38507;53.132;6.394;2022-07-22T10:08:01;18.90;99.90
52209;DHT22;38507;53.132;6.394;2022-07-22T10:10:28;19.10;99.90
52209;DHT22;38507;53.132;6.394;2022-07-22T10:12:56;19.10;99.90
52209;DHT22;38507;53.132;6.394;2022-07-22T10:15:24;19.10;99.90
52209;DHT22;38507;53.132;6.394;2022-07-22T10:17:55;19.30;99.90
52209;DHT22;38507;53.132;6.394;2022-07-22T10:20:24;19.20;99.90
52209;DHT22;38507;53.132;6.394;2022-07-22T10:23:00;19.30;99.90
52209;DHT22;38507;53.132;6.394;2022-07-22T10:25:31;19.10;99.90
52209;DHT22;38507;53.132;6.394;2022-07-22T10:28:04;19.10;99.90
52209;DHT22;38507;53.132;6.394;2022-07-22T10:30:35;19.00;99.90
52209;DHT22;38507;53.132;6.394;2022-07-22T10:33:15;18.90;99.90
52209;DHT22;38507;53.132;6.394;2022-07-22T10:38:10;19.00;99.90
52209;DHT22;38507;53.132;6.394;2022-07-22T10:40:46;18.90;99.90
52209;DHT22;38507;53.132;6.394;2022-07-22T10:43:14;19.00;99.90
52209;DHT22;38507;53.132;6.394;2022-07-22T10:45:47;18.80;99.90
52209;DHT22;38507;53.132;6.394;2022-07-22T10:48:15;18.90;99.90
52209;DHT22;38507;53.132;6.394;2022-07-22T10:50:44;18.90;99.90
52209;DHT22;38507;53.132;6.394;2022-07-22T10:53:24;19.10;99.90
52209;DHT22;38507;53.132;6.394;2022-07-22T10:56:12;19.10;99.90
52209;DHT22;38507;53.132;6.394;2022-07-22T10:58:39;19.30;99.90
52209;DHT22;38507;53.132;6.394;2022-07-22T11:01:08;19.40;99.90
52209;DHT22;38507;53.132;6.394;2022-07-22T11:03:35;19.50;99.90
52209;DHT22;38507;53.132;6.394;2022-07-22T11:06:14;19.50;99.90
52209;DHT22;38507;53.132;6.394;2022-07-22T11:08:41;19.80;99.90
52209;DHT22;38507;53.132;6.394;2022-07-22T11:11:06;19.90;99.90
52209;DHT22;38507;53.132;6.394;2022-07-22T11:13:40;20.00;99.90
52209;DHT22;38507;53.132;6.394;2022-07-22T11:16:16;20.10;99.90
52209;DHT22;38507;53.132;6.394;2022-07-22T11:18:54;20.20;99.90
52209;DHT22;38507;53.132;6.394;2022-07-22T11:21:22;20.30;99.90
52209;DHT22;38507;53.132;6.394;2022-07-22T11:23:50;20.20;99.90
52209;DHT22;38507;53.132;6.394;2022-07-22T11:26:21;20.30;99.90
52209;DHT22;38507;53.132;6.394;2022-07-22T11:28:49;20.40;99.90
52209;DHT22;38507;53.132;6.394;2022-07-22T11:31:17;20.40;99.90
52209;DHT22;38507;53.132;6.394;2022-07-22T11:33:44;20.50;99.90
52209;DHT22;38507;53.132;6.394;2022-07-22T11:36:10;20.60;99.90
52209;DHT22;38507;53.132;6.394;2022-07-22T11:38:48;20.70;99.90
52209;DHT22;38507;53.132;6.394;2022-07-22T11:41:16;20.60;99.90
52209;DHT22;38507;53.132;6.394;2022-07-22T11:43:43;20.50;99.90
52209;DHT22;38507;53.132;6.394;2022-07-22T11:46:09;20.50;99.90
52209;DHT22;38507;53.132;6.394;2022-07-22T11:48:35;20.40;99.90
52209;DHT22;38507;53.132;6.394;2022-07-22T11:51:04;20.30;99.90
52209;DHT22;38507;53.132;6.394;2022-07-22T11:53:30;20.40;99.90
52209;DHT22;38507;53.132;6.394;2022-07-22T11:56:00;20.40;99.90
52209;DHT22;38507;53.132;6.394;2022-07-22T12:01:08;20.50;99.90
52209;DHT22;38507;53.132;6.394;2022-07-22T12:03:36;20.50;99.90
52209;DHT22;38507;53.132;6.394;2022-07-22T12:06:06;20.50;99.90
52209;DHT22;38507;53.132;6.394;2022-07-22T12:08:33;20.60;99.90
52209;DHT22;38507;53.132;6.394;2022-07-22T12:11:00;20.80;99.90
52209;DHT22;38507;53.132;6.394;2022-07-22T12:13:32;20.70;99.90
52209;DHT22;38507;53.132;6.394;2022-07-22T12:15:58;20.60;99.90
52209;DHT22;38507;53.132;6.394;2022-07-22T12:18:26;20.70;99.90
52209;DHT22;38507;53.132;6.394;2022-07-22T12:20:53;20.80;99.90
52209;DHT22;38507;53.132;6.394;2022-07-22T12:23:20;20.80;99.90
52209;DHT22;38507;53.132;6.394;2022-07-22T12:26:04;20.80;99.90
52209;DHT22;38507;53.132;6.394;2022-07-22T12:28:30;20.70;99.90
52209;DHT22;38507;53.132;6.394;2022-07-22T12:30:56;20.70;99.90
52209;DHT22;38507;53.132;6.394;2022-07-22T12:33:22;20.60;99.90
52209;DHT22;38507;53.132;6.394;2022-07-22T12:36:07;20.60;99.90
52209;DHT22;38507;53.132;6.394;2022-07-22T12:38:33;20.60;99.90
52209;DHT22;38507;53.132;6.394;2022-07-22T12:41:27;20.50;99.90
52209;DHT22;38507;53.132;6.394;2022-07-22T12:43:55;20.50;99.90
52209;DHT22;38507;53.132;6.394;2022-07-22T12:46:21;20.40;99.90
52209;DHT22;38507;53.132;6.394;2022-07-22T12:48:54;20.50;99.90
52209;DHT22;38507;53.132;6.394;2022-07-22T12:51:23;20.60;99.90
52209;DHT22;38507;53.132;6.394;2022-07-22T12:53:48;20.50;99.90
52209;DHT22;38507;53.132;6.394;2022-07-22T12:56:14;20.40;99.90
52209;DHT22;38507;53.132;6.394;2022-07-22T12:58:40;20.50;99.90
52209;DHT22;38507;53.132;6.394;2022-07-22T13:01:07;20.60;99.90
52209;DHT22;38507;53.132;6.394;2022-07-22T13:03:33;20.60;99.90
52209;DHT22;38507;53.132;6.394;2022-07-22T13:06:01;20.70;99.90
52209;DHT22;38507;53.132;6.394;2022-07-22T13:08:29;20.60;99.90
52209;DHT22;38507;53.132;6.394;2022-07-22T13:10:55;20.70;99.90
52209;DHT22;38507;53.132;6.394;2022-07-22T13:13:22;20.80;99.90
52209;DHT22;38507;53.132;6.394;2022-07-22T13:15:48;21.00;99.90
52209;DHT22;38507;53.132;6.394;2022-07-22T13:18:18;21.00;99.90
52209;DHT22;38507;53.132;6.394;2022-07-22T13:20:44;21.00;99.90
52209;DHT22;38507;53.132;6.394;2022-07-22T13:23:10;21.10;99.90
52209;DHT22;38507;53.132;6.394;2022-07-22T13:25:36;20.90;99.90
52209;DHT22;38507;53.132;6.394;2022-07-22T13:28:02;20.90;99.90
52209;DHT22;38507;53.132;6.394;2022-07-22T13:30:27;20.90;99.90
52209;DHT22;38507;53.132;6.394;2022-07-22T13:32:53;20.80;99.90
52209;DHT22;38507;53.132;6.394;2022-07-22T13:35:19;20.70;99.90
52209;DHT22;38507;53.132;6.394;2022-07-22T13:37:45;20.60;99.90
52209;DHT22;38507;53.132;6.394;2022-07-22T13:40:11;20.40;99.90
52209;DHT22;38507;53.132;6.394;2022-07-22T13:42:37;20.30;99.90
52209;DHT22;38507;53.132;6.394;2022-07-22T13:45:04;20.30;99.90
52209;DHT22;38507;53.132;6.394;2022-07-22T13:47:30;20.30;99.90
52209;DHT22;38507;53.132;6.394;2022-07-22T13:49:56;20.40;99.90
52209;DHT22;38507;53.132;6.394;2022-07-22T13:52:22;20.30;99.90
52209;DHT22;38507;53.132;6.394;2022-07-22T13:54:48;20.30;99.90
52209;DHT22;38507;53.132;6.394;2022-07-22T13:57:15;20.30;99.90
52209;DHT22;38507;53.132;6.394;2022-07-22T13:59:41;20.20;99.90
52209;DHT22;38507;53.132;6.394;2022-07-22T14:02:07;20.20;99.90
52209;DHT22;38507;53.132;6.394;2022-07-22T14:04:32;20.20;99.90
52209;DHT22;38507;53.132;6.394;2022-07-22T14:06:58;20.20;99.90
52209;DHT22;38507;53.132;6.394;2022-07-22T14:09:24;20.30;99.90
52209;DHT22;38507;53.132;6.394;2022-07-22T14:11:50;20.40;99.90
52209;DHT22;38507;53.132;6.394;2022-07-22T14:14:15;20.20;99.90
52209;DHT22;38507;53.132;6.394;2022-07-22T14:16:41;20.20;99.90
52209;DHT22;38507;53.132;6.394;2022-07-22T14:19:12;20.30;99.90
52209;DHT22;38507;53.132;6.394;2022-07-22T14:21:41;20.20;99.90
52209;DHT22;38507;53.132;6.394;2022-07-22T14:24:08;19.90;99.90
52209;DHT22;38507;53.132;6.394;2022-07-22T14:26:35;20.30;99.90
52209;DHT22;38507;53.132;6.394;2022-07-22T14:29:01;20.10;99.90
52209;DHT22;38507;53.132;6.394;2022-07-22T14:31:27;20.10;99.90
52209;DHT22;38507;53.132;6.394;2022-07-22T14:33:54;20.10;99.90
52209;DHT22;38507;53.132;6.394;2022-07-22T14:36:20;20.20;99.90
52209;DHT22;38507;53.132;6.394;2022-07-22T14:38:46;20.20;99.90
52209;DHT22;38507;53.132;6.394;2022-07-22T14:41:11;20.10;99.90
52209;DHT22;38507;53.132;6.394;2022-07-22T14:43:37;20.10;99.90
52209;DHT22;38507;53.132;6.394;2022-07-22T14:46:03;20.10;99.90
52209;DHT22;38507;53.132;6.394;2022-07-22T14:48:37;20.20;99.90
52209;DHT22;38507;53.132;6.394;2022-07-22T14:51:03;20.30;99.90
52209;DHT22;38507;53.132;6.394;2022-07-22T14:53:29;20.30;99.90
52209;DHT22;38507;53.132;6.394;2022-07-22T14:55:55;20.30;99.90
52209;DHT22;38507;53.132;6.394;2022-07-22T14:58:21;20.30;99.90
52209;DHT22;38507;53.132;6.394;2022-07-22T15:00:47;20.30;99.90
52209;DHT22;38507;53.132;6.394;2022-07-22T15:03:13;20.10;99.90
52209;DHT22;38507;53.132;6.394;2022-07-22T15:05:39;20.10;99.90
52209;DHT22;38507;53.132;6.394;2022-07-22T15:08:07;20.10;99.90
52209;DHT22;38507;53.132;6.394;2022-07-22T15:10:33;20.10;99.90
52209;DHT22;38507;53.132;6.394;2022-07-22T15:12:59;20.10;99.90
52209;DHT22;38507;53.132;6.394;2022-07-22T15:15:25;20.00;99.90
52209;DHT22;38507;53.132;6.394;2022-07-22T15:17:50;20.00;99.90
52209;DHT22;38507;53.132;6.394;2022-07-22T15:20:16;19.90;99.90
52209;DHT22;38507;53.132;6.394;2022-07-22T15:22:42;19.90;99.90
52209;DHT22;38507;53.132;6.394;2022-07-22T15:25:08;19.80;99.90
52209;DHT22;38507;53.132;6.394;2022-07-22T15:27:34;19.80;99.90
52209;DHT22;38507;53.132;6.394;2022-07-22T15:30:07;19.60;99.90
52209;DHT22;38507;53.132;6.394;2022-07-22T15:32:34;19.60;99.90
52209;DHT22;38507;53.132;6.394;2022-07-22T15:35:00;19.50;99.90
52209;DHT22;38507;53.132;6.394;2022-07-22T15:37:25;19.40;99.90
52209;DHT22;38507;53.132;6.394;2022-07-22T15:39:52;19.20;99.90